sensor_id;sensor_type;location;lat;lon;timestamp;pressure;altitude;pressure_sealevel;temperature;humidity
59375;BME280;45172;55.006;73.460;2023-05-21T00:00:27;101166.50;;;7.46;77.16
59375;BME280;45172;55.006;73.460;2023-05-21T00:02:53;101159.44;;;7.89;78.37
59375;BME280;45172;55.006;73.460;2023-05-21T00:05:19;101159.81;;;7.76;77.28
59375;BME280;45172;55.006;73.460;2023-05-21T00:07:46;101160.94;;;7.82;76.73
59375;BME280;45172;55.006;73.460;2023-05-21T00:10:13;101161.44;;;7.95;75.91
59375;BME280;45172;55.006;73.460;2023-05-21T00:12:39;101163.56;;;8.05;75.01
59375;BME280;45172;55.006;73.460;2023-05-21T00:15:07;101166.94;;;8.48;75.70
59375;BME280;45172;55.006;73.460;2023-05-21T00:17:33;101160.47;;;8.40;74.74
59375;BME280;45172;55.006;73.460;2023-05-21T00:20:02;101170.63;;;8.52;74.29
59375;BME280;45172;55.006;73.460;2023-05-21T00:22:31;101160.63;;;8.68;74.28
59375;BME280;45172;55.006;73.460;2023-05-21T00:24:58;101163.91;;;9.11;73.25
59375;BME280;45172;55.006;73.460;2023-05-21T00:27:24;101169.97;;;9.08;72.69
59375;BME280;45172;55.006;73.460;2023-05-21T00:29:50;101157.34;;;9.25;71.43
59375;BME280;45172;55.006;73.460;2023-05-21T00:32:16;101154.50;;;9.74;68.77
59375;BME280;45172;55.006;73.460;2023-05-21T00:34:42;101163.50;;;10.08;67.83
59375;BME280;45172;55.006;73.460;2023-05-21T00:37:08;101165.34;;;10.40;65.44
59375;BME280;45172;55.006;73.460;2023-05-21T00:39:35;101163.59;;;10.71;63.59
59375;BME280;45172;55.006;73.460;2023-05-21T00:42:01;101166.13;;;10.99;62.63
59375;BME280;45172;55.006;73.460;2023-05-21T00:44:28;101162.44;;;11.27;61.19
59375;BME280;45172;55.006;73.460;2023-05-21T00:47:02;101161.31;;;11.53;59.82
59375;BME280;45172;55.006;73.460;2023-05-21T00:49:28;101165.31;;;11.73;59.22
59375;BME280;45172;55.006;73.460;2023-05-21T00:51:55;101170.25;;;11.96;59.41
59375;BME280;45172;55.006;73.460;2023-05-21T00:54:22;101168.94;;;12.15;57.76
59375;BME280;45172;55.006;73.460;2023-05-21T00:56:49;101163.09;;;12.30;58.20
59375;BME280;45172;55.006;73.460;2023-05-21T00:59:16;101166.84;;;12.42;57.93
59375;BME280;45172;55.006;73.460;2023-05-21T01:01:44;101171.38;;;12.46;57.48
59375;BME280;45172;55.006;73.460;2023-05-21T01:04:11;101167.16;;;12.56;58.37
59375;BME280;45172;55.006;73.460;2023-05-21T01:06:37;101172.56;;;12.60;56.48
59375;BME280;45172;55.006;73.460;2023-05-21T01:09:03;101175.38;;;12.68;56.74
59375;BME280;45172;55.006;73.460;2023-05-21T01:11:45;101171.94;;;12.74;55.97
59375;BME280;45172;55.006;73.460;2023-05-21T01:14:14;101172.22;;;12.88;55.45
59375;BME280;45172;55.006;73.460;2023-05-21T01:16:42;101178.66;;;13.01;55.50
59375;BME280;45172;55.006;73.460;2023-05-21T01:19:17;101181.56;;;13.15;56.65
59375;BME280;45172;55.006;73.460;2023-05-21T01:21:50;101176.47;;;13.27;55.17
59375;BME280;45172;55.006;73.460;2023-05-21T01:24:17;101176.38;;;13.21;55.25
59375;BME280;45172;55.006;73.460;2023-05-21T01:26:44;101167.03;;;13.45;54.99
59375;BME280;45172;55.006;73.460;2023-05-21T01:29:12;101171.75;;;13.62;54.96
59375;BME280;45172;55.006;73.460;2023-05-21T01:31:55;101165.66;;;13.67;54.54
59375;BME280;45172;55.006;73.460;2023-05-21T01:37:35;101169.47;;;13.85;54.77
59375;BME280;45172;55.006;73.460;2023-05-21T01:40:10;101171.44;;;13.99;54.33
59375;BME280;45172;55.006;73.460;2023-05-21T01:42:43;101164.34;;;14.01;53.99
59375;BME280;45172;55.006;73.460;2023-05-21T01:45:13;101162.63;;;14.04;54.08
59375;BME280;45172;55.006;73.460;2023-05-21T01:47:46;101165.38;;;14.10;53.40
59375;BME280;45172;55.006;73.460;2023-05-21T01:50:14;101161.00;;;14.14;53.45
59375;BME280;45172;55.006;73.460;2023-05-21T01:52:52;101174.38;;;14.20;52.83
59375;BME280;45172;55.006;73.460;2023-05-21T01:55:19;101170.94;;;14.28;53.29
59375;BME280;45172;55.006;73.460;2023-05-21T01:57:53;101171.91;;;14.36;52.61
59375;BME280;45172;55.006;73.460;2023-05-21T02:00:23;101182.66;;;14.42;53.66
59375;BME280;45172;55.006;73.460;2023-05-21T02:02:50;101172.16;;;14.55;53.03
59375;BME280;45172;55.006;73.460;2023-05-21T02:05:16;101174.13;;;14.68;51.81
59375;BME280;45172;55.006;73.460;2023-05-21T02:07:44;101186.81;;;14.89;52.49
59375;BME280;45172;55.006;73.460;2023-05-21T02:10:11;101188.81;;;15.07;52.52
59375;BME280;45172;55.006;73.460;2023-05-21T02:12:37;101183.56;;;15.20;51.25
59375;BME280;45172;55.006;73.460;2023-05-21T02:15:04;101187.19;;;15.28;50.47
59375;BME280;45172;55.006;73.460;2023-05-21T02:17:31;101189.97;;;15.36;49.80
59375;BME280;45172;55.006;73.460;2023-05-21T02:19:59;101185.59;;;15.47;49.87
59375;BME280;45172;55.006;73.460;2023-05-21T02:22:45;101186.63;;;15.67;48.62
59375;BME280;45172;55.006;73.460;2023-05-21T02:25:12;101181.53;;;15.93;48.82
59375;BME280;45172;55.006;73.460;2023-05-21T02:27:39;101182.59;;;16.20;47.22
59375;BME280;45172;55.006;73.460;2023-05-21T02:30:10;101188.03;;;16.40;45.08
59375;BME280;45172;55.006;73.460;2023-05-21T02:32:37;101184.56;;;16.63;45.88
59375;BME280;45172;55.006;73.460;2023-05-21T02:35:09;101182.84;;;16.84;44.68
59375;BME280;45172;55.006;73.460;2023-05-21T02:37:36;101177.56;;;17.07;45.04
59375;BME280;45172;55.006;73.460;2023-05-21T02:40:03;101185.66;;;17.31;43.61
59375;BME280;45172;55.006;73.460;2023-05-21T02:42:31;101189.22;;;17.50;42.60
59375;BME280;45172;55.006;73.460;2023-05-21T02:44:56;101182.06;;;17.66;42.25
59375;BME280;45172;55.006;73.460;2023-05-21T02:47:23;101191.00;;;17.87;43.86
59375;BME280;45172;55.006;73.460;2023-05-21T02:49:51;101183.84;;;18.14;41.04
59375;BME280;45172;55.006;73.460;2023-05-21T02:52:18;101181.13;;;18.21;41.30
59375;BME280;45172;55.006;73.460;2023-05-21T02:54:45;101189.13;;;18.39;42.21
59375;BME280;45172;55.006;73.460;2023-05-21T02:57:13;101169.38;;;18.55;40.19
59375;BME280;45172;55.006;73.460;2023-05-21T02:59:39;101171.94;;;18.80;40.25
59375;BME280;45172;55.006;73.460;2023-05-21T03:02:05;101184.31;;;19.06;39.00
59375;BME280;45172;55.006;73.460;2023-05-21T03:04:33;101177.03;;;19.30;38.82
59375;BME280;45172;55.006;73.460;2023-05-21T03:07:05;101164.34;;;19.44;38.55
59375;BME280;45172;55.006;73.460;2023-05-21T03:09:31;101168.63;;;19.67;37.43
59375;BME280;45172;55.006;73.460;2023-05-21T03:11:57;101164.91;;;19.82;37.14
59375;BME280;45172;55.006;73.460;2023-05-21T03:14:23;101163.03;;;19.89;37.05
59375;BME280;45172;55.006;73.460;2023-05-21T03:16:49;101159.19;;;20.17;37.08
59375;BME280;45172;55.006;73.460;2023-05-21T03:19:16;101172.41;;;20.37;35.78
59375;BME280;45172;55.006;73.460;2023-05-21T03:21:41;101162.28;;;20.58;35.50
59375;BME280;45172;55.006;73.460;2023-05-21T03:24:08;101162.06;;;20.73;34.69
59375;BME280;45172;55.006;73.460;2023-05-21T03:26:34;101161.09;;;20.84;34.70
59375;BME280;45172;55.006;73.460;2023-05-21T03:29:00;101166.34;;;20.90;36.46
59375;BME280;45172;55.006;73.460;2023-05-21T03:31:26;101162.66;;;20.97;34.54
59375;BME280;45172;55.006;73.460;2023-05-21T03:33:52;101164.41;;;21.01;33.97
59375;BME280;45172;55.006;73.460;2023-05-21T03:36:18;101175.81;;;21.17;34.58
59375;BME280;45172;55.006;73.460;2023-05-21T03:38:45;101166.63;;;21.31;33.82
59375;BME280;45172;55.006;73.460;2023-05-21T03:41:11;101171.09;;;21.33;32.79
59375;BME280;45172;55.006;73.460;2023-05-21T03:43:38;101167.31;;;21.45;33.79
59375;BME280;45172;55.006;73.460;2023-05-21T03:46:04;101169.66;;;21.66;33.25
59375;BME280;45172;55.006;73.460;2023-05-21T03:48:30;101164.91;;;21.82;32.89
59375;BME280;45172;55.006;73.460;2023-05-21T03:50:56;101166.50;;;21.94;32.41
59375;BME280;45172;55.006;73.460;2023-05-21T03:53:22;101163.78;;;21.95;31.49
59375;BME280;45172;55.006;73.460;2023-05-21T03:55:48;101164.53;;;22.02;31.53
59375;BME280;45172;55.006;73.460;2023-05-21T03:58:23;101158.31;;;21.98;29.26
59375;BME280;45172;55.006;73.460;2023-05-21T04:00:49;101163.72;;;21.98;30.33
59375;BME280;45172;55.006;73.460;2023-05-21T04:03:15;101153.66;;;22.07;29.82
59375;BME280;45172;55.006;73.460;2023-05-21T04:05:42;101162.38;;;22.20;30.66
59375;BME280;45172;55.006;73.460;2023-05-21T04:08:09;101155.81;;;22.35;30.89
59375;BME280;45172;55.006;73.460;2023-05-21T04:10:35;101160.16;;;22.42;29.11
59375;BME280;45172;55.006;73.460;2023-05-21T04:13:01;101169.06;;;22.46;29.07
59375;BME280;45172;55.006;73.460;2023-05-21T04:15:27;101156.47;;;22.44;28.46
59375;BME280;45172;55.006;73.460;2023-05-21T04:17:53;101144.69;;;22.49;29.01
59375;BME280;45172;55.006;73.460;2023-05-21T04:20:19;101144.50;;;22.60;29.14
59375;BME280;45172;55.006;73.460;2023-05-21T04:22:46;101141.81;;;22.60;28.18
59375;BME280;45172;55.006;73.460;2023-05-21T04:25:11;101142.50;;;22.68;28.09
59375;BME280;45172;55.006;73.460;2023-05-21T04:27:38;101145.81;;;22.81;28.10
59375;BME280;45172;55.006;73.460;2023-05-21T04:30:04;101145.56;;;22.92;27.15
59375;BME280;45172;55.006;73.460;2023-05-21T04:32:31;101142.78;;;22.95;27.73
59375;BME280;45172;55.006;73.460;2023-05-21T04:34:59;101148.94;;;23.03;27.99
59375;BME280;45172;55.006;73.460;2023-05-21T04:37:26;101148.25;;;22.93;27.43
59375;BME280;45172;55.006;73.460;2023-05-21T04:39:56;101147.19;;;23.01;27.17
59375;BME280;45172;55.006;73.460;2023-05-21T04:42:23;101133.47;;;23.08;25.51
59375;BME280;45172;55.006;73.460;2023-05-21T04:44:49;101134.59;;;22.99;25.23
59375;BME280;45172;55.006;73.460;2023-05-21T04:47:16;101137.31;;;22.99;26.94
59375;BME280;45172;55.006;73.460;2023-05-21T04:49:43;101126.72;;;23.26;26.58
59375;BME280;45172;55.006;73.460;2023-05-21T04:52:09;101136.06;;;23.51;26.80
59375;BME280;45172;55.006;73.460;2023-05-21T04:54:35;101127.81;;;23.56;26.48
59375;BME280;45172;55.006;73.460;2023-05-21T04:57:05;101127.00;;;23.53;26.92
59375;BME280;45172;55.006;73.460;2023-05-21T04:59:31;101128.25;;;23.73;25.98
59375;BME280;45172;55.006;73.460;2023-05-21T05:01:57;101129.69;;;23.87;24.86
59375;BME280;45172;55.006;73.460;2023-05-21T05:04:22;101129.69;;;23.87;24.44
59375;BME280;45172;55.006;73.460;2023-05-21T05:06:49;101124.13;;;23.93;25.64
59375;BME280;45172;55.006;73.460;2023-05-21T05:09:16;101116.69;;;24.01;24.66
59375;BME280;45172;55.006;73.460;2023-05-21T05:11:43;101113.16;;;23.98;25.29
59375;BME280;45172;55.006;73.460;2023-05-21T05:14:09;101116.72;;;23.66;24.73
59375;BME280;45172;55.006;73.460;2023-05-21T05:16:35;101122.06;;;23.33;25.65
59375;BME280;45172;55.006;73.460;2023-05-21T05:19:01;101129.13;;;23.03;26.06
59375;BME280;45172;55.006;73.460;2023-05-21T05:21:27;101126.28;;;22.69;26.41
59375;BME280;45172;55.006;73.460;2023-05-21T05:23:53;101122.81;;;22.63;26.73
59375;BME280;45172;55.006;73.460;2023-05-21T05:26:19;101127.72;;;22.84;26.59
59375;BME280;45172;55.006;73.460;2023-05-21T05:28:46;101120.81;;;23.10;26.98
59375;BME280;45172;55.006;73.460;2023-05-21T05:31:12;101105.91;;;23.32;24.90
59375;BME280;45172;55.006;73.460;2023-05-21T05:33:37;101096.63;;;23.42;25.42
59375;BME280;45172;55.006;73.460;2023-05-21T05:36:04;101101.47;;;23.64;26.03
59375;BME280;45172;55.006;73.460;2023-05-21T05:38:30;101111.59;;;23.89;25.23
59375;BME280;45172;55.006;73.460;2023-05-21T05:40:56;101100.94;;;23.83;25.28
59375;BME280;45172;55.006;73.460;2023-05-21T05:43:24;101100.59;;;23.95;25.58
59375;BME280;45172;55.006;73.460;2023-05-21T05:45:51;101092.97;;;24.11;26.51
59375;BME280;45172;55.006;73.460;2023-05-21T05:48:18;101106.06;;;24.27;25.29
59375;BME280;45172;55.006;73.460;2023-05-21T05:50:45;101093.38;;;24.27;24.92
59375;BME280;45172;55.006;73.460;2023-05-21T05:53:11;101093.25;;;24.32;25.18
59375;BME280;45172;55.006;73.460;2023-05-21T05:55:38;101094.13;;;24.34;25.46
59375;BME280;45172;55.006;73.460;2023-05-21T05:58:05;101092.06;;;24.42;24.94
59375;BME280;45172;55.006;73.460;2023-05-21T06:00:32;101084.44;;;24.25;24.58
59375;BME280;45172;55.006;73.460;2023-05-21T06:02:57;101077.81;;;24.04;25.49
59375;BME280;45172;55.006;73.460;2023-05-21T06:05:23;101078.47;;;23.80;24.59
59375;BME280;45172;55.006;73.460;2023-05-21T06:07:49;101072.66;;;23.63;25.16
59375;BME280;45172;55.006;73.460;2023-05-21T06:10:15;101073.34;;;23.70;25.88
59375;BME280;45172;55.006;73.460;2023-05-21T06:12:41;101068.41;;;23.86;26.38
59375;BME280;45172;55.006;73.460;2023-05-21T06:15:08;101061.84;;;24.26;26.07
59375;BME280;45172;55.006;73.460;2023-05-21T06:17:34;101067.34;;;24.53;25.46
59375;BME280;45172;55.006;73.460;2023-05-21T06:20:00;101063.78;;;24.51;24.62
59375;BME280;45172;55.006;73.460;2023-05-21T06:22:28;101069.94;;;24.56;24.26
59375;BME280;45172;55.006;73.460;2023-05-21T06:24:54;101063.72;;;24.54;24.30
59375;BME280;45172;55.006;73.460;2023-05-21T06:27:20;101067.69;;;24.42;24.31
59375;BME280;45172;55.006;73.460;2023-05-21T06:29:46;101060.63;;;24.06;24.48
59375;BME280;45172;55.006;73.460;2023-05-21T06:32:12;101056.88;;;23.79;24.75
59375;BME280;45172;55.006;73.460;2023-05-21T06:34:38;101058.03;;;23.70;25.27
59375;BME280;45172;55.006;73.460;2023-05-21T06:37:04;101058.19;;;23.64;25.85
59375;BME280;45172;55.006;73.460;2023-05-21T06:39:30;101054.59;;;23.63;25.19
59375;BME280;45172;55.006;73.460;2023-05-21T06:41:56;101062.16;;;23.50;26.48
59375;BME280;45172;55.006;73.460;2023-05-21T06:44:23;101051.50;;;23.44;25.63
59375;BME280;45172;55.006;73.460;2023-05-21T06:46:50;101048.00;;;23.74;26.21
59375;BME280;45172;55.006;73.460;2023-05-21T06:49:16;101054.75;;;24.22;25.44
59375;BME280;45172;55.006;73.460;2023-05-21T06:51:41;101043.63;;;24.61;24.68
59375;BME280;45172;55.006;73.460;2023-05-21T06:54:07;101038.16;;;24.92;25.56
59375;BME280;45172;55.006;73.460;2023-05-21T06:56:33;101031.69;;;25.23;24.45
59375;BME280;45172;55.006;73.460;2023-05-21T06:59:00;101040.09;;;25.40;23.40
59375;BME280;45172;55.006;73.460;2023-05-21T07:01:27;101047.00;;;25.49;23.74
59375;BME280;45172;55.006;73.460;2023-05-21T07:03:53;101046.75;;;25.30;23.95
59375;BME280;45172;55.006;73.460;2023-05-21T07:06:19;101051.31;;;25.02;23.00
59375;BME280;45172;55.006;73.460;2023-05-21T07:08:46;101052.41;;;24.68;23.89
59375;BME280;45172;55.006;73.460;2023-05-21T07:11:14;101055.28;;;24.35;24.30
59375;BME280;45172;55.006;73.460;2023-05-21T07:13:40;101043.97;;;24.20;24.59
59375;BME280;45172;55.006;73.460;2023-05-21T07:16:06;101052.72;;;24.30;24.34
59375;BME280;45172;55.006;73.460;2023-05-21T07:18:32;101040.34;;;24.50;23.08
59375;BME280;45172;55.006;73.460;2023-05-21T07:20:59;101029.78;;;24.71;23.61
59375;BME280;45172;55.006;73.460;2023-05-21T07:23:25;101041.50;;;25.00;24.08
59375;BME280;45172;55.006;73.460;2023-05-21T07:25:51;101038.63;;;25.30;23.38
59375;BME280;45172;55.006;73.460;2023-05-21T07:28:18;101029.66;;;25.55;23.10
59375;BME280;45172;55.006;73.460;2023-05-21T07:30:45;101042.16;;;25.59;22.85
59375;BME280;45172;55.006;73.460;2023-05-21T07:33:11;101029.03;;;25.72;23.11
59375;BME280;45172;55.006;73.460;2023-05-21T07:35:37;101034.75;;;25.88;21.80
59375;BME280;45172;55.006;73.460;2023-05-21T07:38:03;101027.16;;;25.98;22.31
59375;BME280;45172;55.006;73.460;2023-05-21T07:40:29;101027.34;;;26.17;23.12
59375;BME280;45172;55.006;73.460;2023-05-21T07:42:57;101024.03;;;26.33;23.22
59375;BME280;45172;55.006;73.460;2023-05-21T07:45:23;101026.72;;;26.57;22.35
59375;BME280;45172;55.006;73.460;2023-05-21T07:47:50;101020.31;;;26.35;22.34
59375;BME280;45172;55.006;73.460;2023-05-21T07:50:16;101019.81;;;26.25;22.23
59375;BME280;45172;55.006;73.460;2023-05-21T07:52:42;101020.59;;;25.80;22.79
59375;BME280;45172;55.006;73.460;2023-05-21T07:55:08;101027.69;;;25.33;22.74
59375;BME280;45172;55.006;73.460;2023-05-21T07:57:35;101017.59;;;25.11;23.07
59375;BME280;45172;55.006;73.460;2023-05-21T08:00:02;101022.47;;;25.27;22.24
59375;BME280;45172;55.006;73.460;2023-05-21T08:02:29;101022.53;;;25.51;21.99
59375;BME280;45172;55.006;73.460;2023-05-21T08:04:55;101020.97;;;25.70;23.02
59375;BME280;45172;55.006;73.460;2023-05-21T08:07:22;101022.31;;;25.82;21.98
59375;BME280;45172;55.006;73.460;2023-05-21T08:09:50;101025.03;;;25.82;21.03
59375;BME280;45172;55.006;73.460;2023-05-21T08:12:16;101016.72;;;25.87;21.88
59375;BME280;45172;55.006;73.460;2023-05-21T08:14:44;101005.66;;;26.16;22.47
59375;BME280;45172;55.006;73.460;2023-05-21T08:17:10;101003.09;;;26.36;22.76
59375;BME280;45172;55.006;73.460;2023-05-21T08:19:36;101013.84;;;26.62;23.06
59375;BME280;45172;55.006;73.460;2023-05-21T08:22:03;101013.84;;;26.83;21.59
59375;BME280;45172;55.006;73.460;2023-05-21T08:24:31;101008.63;;;26.78;21.83
59375;BME280;45172;55.006;73.460;2023-05-21T08:26:57;101006.94;;;26.53;21.81
59375;BME280;45172;55.006;73.460;2023-05-21T08:29:23;101012.22;;;26.10;22.12
59375;BME280;45172;55.006;73.460;2023-05-21T08:31:49;101017.06;;;25.78;22.12
59375;BME280;45172;55.006;73.460;2023-05-21T08:34:16;101007.25;;;25.74;21.97
59375;BME280;45172;55.006;73.460;2023-05-21T08:36:43;101008.03;;;25.77;22.43
59375;BME280;45172;55.006;73.460;2023-05-21T08:39:11;101004.78;;;25.91;22.19
59375;BME280;45172;55.006;73.460;2023-05-21T08:41:40;101000.22;;;25.93;22.23
59375;BME280;45172;55.006;73.460;2023-05-21T08:44:10;100997.19;;;26.01;21.36
59375;BME280;45172;55.006;73.460;2023-05-21T08:46:39;101002.13;;;26.13;22.19
59375;BME280;45172;55.006;73.460;2023-05-21T08:49:09;101004.38;;;26.26;22.21
59375;BME280;45172;55.006;73.460;2023-05-21T08:51:36;101008.00;;;26.26;21.13
59375;BME280;45172;55.006;73.460;2023-05-21T08:54:05;100994.38;;;26.28;21.95
59375;BME280;45172;55.006;73.460;2023-05-21T08:56:33;101004.50;;;26.45;21.15
59375;BME280;45172;55.006;73.460;2023-05-21T08:59:00;100980.38;;;26.60;20.70
59375;BME280;45172;55.006;73.460;2023-05-21T09:01:26;100991.78;;;26.92;20.81
59375;BME280;45172;55.006;73.460;2023-05-21T09:03:55;100991.91;;;26.87;19.50
59375;BME280;45172;55.006;73.460;2023-05-21T09:06:22;100986.19;;;26.95;20.62
59375;BME280;45172;55.006;73.460;2023-05-21T09:08:59;100986.75;;;27.03;20.67
59375;BME280;45172;55.006;73.460;2023-05-21T09:11:28;100984.72;;;26.86;20.28
59375;BME280;45172;55.006;73.460;2023-05-21T09:13:54;100991.31;;;26.80;19.74
59375;BME280;45172;55.006;73.460;2023-05-21T09:16:21;100976.75;;;26.81;20.12
59375;BME280;45172;55.006;73.460;2023-05-21T09:18:48;100981.78;;;26.92;20.32
59375;BME280;45172;55.006;73.460;2023-05-21T09:21:25;100984.56;;;27.12;19.82
59375;BME280;45172;55.006;73.460;2023-05-21T09:23:56;100987.75;;;27.01;20.01
59375;BME280;45172;55.006;73.460;2023-05-21T09:26:23;100980.06;;;26.90;19.19
59375;BME280;45172;55.006;73.460;2023-05-21T09:28:56;100981.09;;;26.65;19.82
59375;BME280;45172;55.006;73.460;2023-05-21T09:31:25;100984.13;;;26.57;19.78
59375;BME280;45172;55.006;73.460;2023-05-21T09:33:52;100971.97;;;26.66;20.16
59375;BME280;45172;55.006;73.460;2023-05-21T09:36:21;100978.31;;;26.87;19.74
59375;BME280;45172;55.006;73.460;2023-05-21T09:38:49;100991.91;;;26.87;19.51
59375;BME280;45172;55.006;73.460;2023-05-21T09:41:17;100988.69;;;26.57;18.79
59375;BME280;45172;55.006;73.460;2023-05-21T09:43:43;100998.50;;;26.37;19.25
59375;BME280;45172;55.006;73.460;2023-05-21T09:46:10;100989.28;;;26.19;19.07
59375;BME280;45172;55.006;73.460;2023-05-21T09:48:41;100987.94;;;26.31;19.61
59375;BME280;45172;55.006;73.460;2023-05-21T09:53:53;100980.16;;;26.44;19.16
59375;BME280;45172;55.006;73.460;2023-05-21T09:56:22;100979.03;;;26.27;20.27
59375;BME280;45172;55.006;73.460;2023-05-21T09:58:53;100982.59;;;26.04;19.82
59375;BME280;45172;55.006;73.460;2023-05-21T10:01:20;100983.44;;;25.82;19.51
59375;BME280;45172;55.006;73.460;2023-05-21T10:03:49;100977.72;;;25.66;20.00
59375;BME280;45172;55.006;73.460;2023-05-21T10:06:18;100975.88;;;25.66;20.59
59375;BME280;45172;55.006;73.460;2023-05-21T10:08:47;100970.63;;;25.85;19.91
59375;BME280;45172;55.006;73.460;2023-05-21T10:11:18;100970.81;;;26.05;20.29
59375;BME280;45172;55.006;73.460;2023-05-21T10:13:52;100980.59;;;26.33;20.07
59375;BME280;45172;55.006;73.460;2023-05-21T10:16:21;100969.22;;;26.45;20.09
59375;BME280;45172;55.006;73.460;2023-05-21T10:18:47;100972.38;;;26.57;20.17
59375;BME280;45172;55.006;73.460;2023-05-21T10:21:14;100972.31;;;26.58;19.59
59375;BME280;45172;55.006;73.460;2023-05-21T10:23:42;100976.34;;;26.25;19.49
59375;BME280;45172;55.006;73.460;2023-05-21T10:26:09;100987.03;;;26.06;19.92
59375;BME280;45172;55.006;73.460;2023-05-21T10:28:36;100993.53;;;25.78;20.15
59375;BME280;45172;55.006;73.460;2023-05-21T10:31:03;100977.44;;;25.74;20.28
59375;BME280;45172;55.006;73.460;2023-05-21T10:33:29;100986.63;;;25.69;20.17
59375;BME280;45172;55.006;73.460;2023-05-21T10:35:57;100996.00;;;25.61;20.54
59375;BME280;45172;55.006;73.460;2023-05-21T10:38:24;100996.72;;;25.40;20.36
59375;BME280;45172;55.006;73.460;2023-05-21T10:40:52;100997.81;;;25.35;21.01
59375;BME280;45172;55.006;73.460;2023-05-21T10:43:30;101002.09;;;25.42;20.01
59375;BME280;45172;55.006;73.460;2023-05-21T10:52:37;101000.22;;;25.93;19.57
59375;BME280;45172;55.006;73.460;2023-05-21T11:00:35;100990.75;;;26.04;19.35
59375;BME280;45172;55.006;73.460;2023-05-21T11:03:14;100995.72;;;25.92;19.78
59375;BME280;45172;55.006;73.460;2023-05-21T11:08:29;100992.66;;;26.02;19.49
59375;BME280;45172;55.006;73.460;2023-05-21T11:11:01;100992.69;;;26.00;19.40
59375;BME280;45172;55.006;73.460;2023-05-21T11:13:44;100992.91;;;26.18;19.34
59375;BME280;45172;55.006;73.460;2023-05-21T11:16:16;100991.91;;;26.20;19.49
59375;BME280;45172;55.006;73.460;2023-05-21T11:21:16;100993.31;;;26.07;19.66
59375;BME280;45172;55.006;73.460;2023-05-21T11:23:58;100998.47;;;26.15;19.65
59375;BME280;45172;55.006;73.460;2023-05-21T11:26:28;100997.56;;;26.14;19.68
59375;BME280;45172;55.006;73.460;2023-05-21T11:31:30;101010.34;;;26.12;20.56
59375;BME280;45172;55.006;73.460;2023-05-21T11:34:23;101000.38;;;26.12;19.20
59375;BME280;45172;55.006;73.460;2023-05-21T11:39:53;101003.09;;;26.36;20.34
59375;BME280;45172;55.006;73.460;2023-05-21T11:42:29;101002.88;;;26.41;20.49
59375;BME280;45172;55.006;73.460;2023-05-21T11:44:56;100996.97;;;26.53;20.86
59375;BME280;45172;55.006;73.460;2023-05-21T11:47:27;100999.69;;;26.53;19.41
59375;BME280;45172;55.006;73.460;2023-05-21T11:49:55;101001.00;;;26.19;19.28
59375;BME280;45172;55.006;73.460;2023-05-21T11:52:22;101004.91;;;26.12;19.38
59375;BME280;45172;55.006;73.460;2023-05-21T11:54:50;101003.84;;;26.16;20.62
59375;BME280;45172;55.006;73.460;2023-05-21T11:57:20;101003.56;;;26.24;20.20
59375;BME280;45172;55.006;73.460;2023-05-21T11:59:47;100986.25;;;26.49;19.86
59375;BME280;45172;55.006;73.460;2023-05-21T12:02:15;100991.34;;;26.58;19.37
59375;BME280;45172;55.006;73.460;2023-05-21T12:04:42;100990.69;;;26.51;19.42
59375;BME280;45172;55.006;73.460;2023-05-21T12:07:10;100995.41;;;26.24;20.20
59375;BME280;45172;55.006;73.460;2023-05-21T12:09:41;101008.00;;;26.26;19.65
59375;BME280;45172;55.006;73.460;2023-05-21T12:12:07;101004.19;;;26.07;19.78
59375;BME280;45172;55.006;73.460;2023-05-21T12:14:35;101008.28;;;26.19;19.51
59375;BME280;45172;55.006;73.460;2023-05-21T12:17:04;101000.56;;;26.32;19.47
59375;BME280;45172;55.006;73.460;2023-05-21T12:19:33;100992.22;;;26.59;19.67
59375;BME280;45172;55.006;73.460;2023-05-21T12:22:01;100985.13;;;26.77;19.20
59375;BME280;45172;55.006;73.460;2023-05-21T12:24:27;100993.47;;;26.72;19.34
59375;BME280;45172;55.006;73.460;2023-05-21T12:26:54;100991.69;;;26.71;19.55
59375;BME280;45172;55.006;73.460;2023-05-21T12:29:27;100996.00;;;26.77;19.80
59375;BME280;45172;55.006;73.460;2023-05-21T12:31:58;100989.03;;;26.70;19.18
59375;BME280;45172;55.006;73.460;2023-05-21T12:37:19;101007.00;;;26.51;18.77
59375;BME280;45172;55.006;73.460;2023-05-21T12:39:48;100999.28;;;26.63;18.73
59375;BME280;45172;55.006;73.460;2023-05-21T12:42:14;101009.66;;;26.53;19.26
59375;BME280;45172;55.006;73.460;2023-05-21T12:44:45;101011.84;;;26.21;18.68
59375;BME280;45172;55.006;73.460;2023-05-21T12:47:12;101014.66;;;25.94;19.13
59375;BME280;45172;55.006;73.460;2023-05-21T12:49:41;101023.78;;;25.91;19.81
59375;BME280;45172;55.006;73.460;2023-05-21T12:52:12;101015.81;;;26.10;19.19
59375;BME280;45172;55.006;73.460;2023-05-21T12:54:40;101018.56;;;26.34;18.93
59375;BME280;45172;55.006;73.460;2023-05-21T12:57:10;101012.03;;;26.61;19.26
59375;BME280;45172;55.006;73.460;2023-05-21T12:59:43;101017.34;;;26.64;18.96
59375;BME280;45172;55.006;73.460;2023-05-21T13:02:31;101014.25;;;26.73;18.38
59375;BME280;45172;55.006;73.460;2023-05-21T13:05:00;101017.94;;;26.50;19.48
59375;BME280;45172;55.006;73.460;2023-05-21T13:07:29;101017.22;;;26.67;19.24
59375;BME280;45172;55.006;73.460;2023-05-21T13:09:56;101013.94;;;27.24;19.10
59375;BME280;45172;55.006;73.460;2023-05-21T13:12:23;101009.59;;;27.41;18.35
59375;BME280;45172;55.006;73.460;2023-05-21T13:14:52;101011.69;;;27.55;18.47